Time;durP1;ratioP1;P1;durP2;ratioP2;P2;SDS_P1;SDS_P2;PMS_P1;PMS_P2;Temp;Humidity;BMP_temperature;BMP_pressure;BME280_temperature;BME280_humidity;BME280_pressure;Samples;Min_cycle;Max_cycle;Signal;HPM_P1;HPM_P2
2023/07/30 00:01:39;;;;;;;6.07;2.60;;;;;;;17.08;100.00;100851.06;5257274;28;20141;-73
2023/07/30 00:04:10;;;;;;;7.57;2.33;;;;;;;17.05;100.00;100858.53;5261708;28;20087;-76
2023/07/30 00:06:41;;;;;;;5.43;2.85;;;;;;;17.05;100.00;100854.06;5262143;28;20030;-73
2023/07/30 00:09:13;;;;;;;6.82;2.70;;;;;;;17.05;100.00;100850.56;5256854;28;20063;-74
2023/07/30 00:11:44;;;;;;;6.05;2.60;;;;;;;17.02;100.00;100860.53;5256978;28;20029;-73
2023/07/30 00:14:15;;;;;;;6.35;2.83;;;;;;;16.98;100.00;100853.09;5262440;28;20041;-75
2023/07/30 00:16:47;;;;;;;6.13;2.63;;;;;;;17.01;100.00;100847.47;5264192;28;20028;-78
2023/07/30 00:19:18;;;;;;;6.53;2.35;;;;;;;17.00;100.00;100846.63;5247419;28;20024;-74
2023/07/30 00:21:49;;;;;;;6.93;2.58;;;;;;;16.91;100.00;100829.16;5259565;28;20029;-75
2023/07/30 00:24:20;;;;;;;6.60;2.28;;;;;;;16.96;100.00;100840.03;5263438;28;20035;-74
2023/07/30 00:26:52;;;;;;;7.85;2.92;;;;;;;16.86;100.00;100833.28;5263528;28;20032;-74
2023/07/30 00:29:23;;;;;;;7.25;2.70;;;;;;;16.84;100.00;100841.41;5260897;28;20079;-76
2023/07/30 00:31:54;;;;;;;5.53;2.70;;;;;;;16.88;100.00;100860.41;5264629;28;20040;-73
2023/07/30 00:34:25;;;;;;;7.45;2.65;;;;;;;16.85;100.00;100852.81;5263434;28;20395;-75
2023/07/30 00:36:57;;;;;;;4.57;2.60;;;;;;;16.80;100.00;100855.16;5262676;28;20561;-74
2023/07/30 00:39:28;;;;;;;10.65;2.30;;;;;;;16.82;100.00;100856.66;5261931;28;20278;-76
2023/07/30 00:41:59;;;;;;;6.68;3.00;;;;;;;16.83;100.00;100855.63;5262698;28;20645;-73
2023/07/30 00:44:31;;;;;;;5.28;2.55;;;;;;;16.83;100.00;100855.63;5263354;28;20051;-77
2023/07/30 00:47:03;;;;;;;8.30;3.10;;;;;;;16.79;100.00;100856.97;5255157;28;20016;-75
2023/07/30 00:49:34;;;;;;;8.50;3.08;;;;;;;16.78;100.00;100860.59;5263113;28;20378;-74
2023/07/30 00:52:07;;;;;;;6.60;2.97;;;;;;;16.72;100.00;100862.09;5261888;28;20120;-74
2023/07/30 00:54:39;;;;;;;;;;;;;;;17.43;100.00;100862.16;5261447;28;20017;-75
2023/07/30 00:57:10;;;;;;;7.82;2.83;;;;;;;16.74;100.00;100865.44;5241276;28;20374;-75
2023/07/30 00:59:42;;;;;;;7.75;2.90;;;;;;;16.69;100.00;100870.34;5266742;28;20111;-76
2023/07/30 01:02:14;;;;;;;7.40;3.00;;;;;;;16.68;100.00;100867.91;5261943;28;20045;-73
2023/07/30 01:04:45;;;;;;;8.02;3.17;;;;;;;16.67;100.00;100872.38;5257569;28;20508;-74
2023/07/30 01:07:17;;;;;;;6.07;3.35;;;;;;;16.65;100.00;100876.97;5265372;28;20442;-77
2023/07/30 01:09:48;;;;;;;7.72;2.95;;;;;;;16.66;100.00;100885.75;5261975;28;20052;-76
2023/07/30 01:12:20;;;;;;;6.35;3.20;;;;;;;16.67;100.00;100882.13;5259135;28;20078;-74
2023/07/30 01:14:53;;;;;;;7.18;2.80;;;;;;;16.62;100.00;100890.53;5263064;28;20032;-73
2023/07/30 01:17:25;;;;;;;8.15;3.15;;;;;;;16.54;100.00;100887.91;5264038;28;20485;-77
2023/07/30 01:19:56;;;;;;;6.35;2.60;;;;;;;16.57;100.00;100895.53;5270137;28;20032;-76
2023/07/30 01:22:28;;;;;;;6.68;3.00;;;;;;;16.53;100.00;100900.31;5245854;28;20021;-73
2023/07/30 01:24:59;;;;;;;12.27;3.58;;;;;;;16.57;100.00;100897.34;5266508;28;20035;-77
2023/07/30 01:27:36;;;;;;;7.57;3.13;;;;;;;16.63;100.00;100889.56;5264887;28;20055;-73
2023/07/30 01:30:13;;;;;;;7.15;2.90;;;;;;;16.63;100.00;100897.50;5260482;28;20501;-76
2023/07/30 01:32:48;;;;;;;8.52;3.53;;;;;;;16.52;100.00;100903.13;5260452;28;20039;-74
2023/07/30 01:35:22;;;;;;;8.75;3.53;;;;;;;16.52;100.00;100901.31;5261074;28;20029;-76
2023/07/30 01:37:54;;;;;;;9.77;3.30;;;;;;;16.46;100.00;100903.78;5260771;28;20061;-74
2023/07/30 01:40:25;;;;;;;7.63;3.08;;;;;;;16.43;100.00;100906.78;5261592;28;20024;-75
2023/07/30 01:42:56;;;;;;;7.88;2.92;;;;;;;16.44;100.00;100893.41;5261219;28;20029;-73
2023/07/30 01:45:27;;;;;;;6.53;3.40;;;;;;;16.46;100.00;100901.16;5245064;28;20032;-77
2023/07/30 01:47:59;;;;;;;7.65;2.53;;;;;;;16.45;100.00;100905.63;5259725;28;20031;-74
2023/07/30 01:50:30;;;;;;;8.23;3.28;;;;;;;16.50;100.00;100915.69;5264675;28;20086;-75
2023/07/30 01:53:01;;;;;;;6.63;2.92;;;;;;;16.46;100.00;100906.44;5266363;28;20029;-76
2023/07/30 01:55:32;;;;;;;10.73;3.53;;;;;;;16.46;100.00;100917.03;5265316;28;20047;-76
2023/07/30 01:58:04;;;;;;;5.55;2.63;;;;;;;16.42;100.00;100908.59;5261008;28;20286;-75
2023/07/30 02:00:35;;;;;;;7.72;3.20;;;;;;;16.38;100.00;100904.63;5264904;28;20036;-75
2023/07/30 02:03:07;;;;;;;10.20;3.00;;;;;;;16.43;100.00;100912.06;5263394;28;20429;-73
2023/07/30 02:05:38;;;;;;;8.63;3.30;;;;;;;16.32;100.00;100900.00;5264935;28;20345;-73
2023/07/30 02:08:09;;;;;;;8.85;3.42;;;;;;;16.44;100.00;100913.69;5259100;28;20473;-73
2023/07/30 02:10:41;;;;;;;7.97;2.92;;;;;;;16.39;100.00;100916.84;5262309;28;20024;-74
2023/07/30 02:13:12;;;;;;;9.63;3.83;;;;;;;16.39;100.00;100916.03;5261117;28;20028;-74
2023/07/30 02:15:43;;;;;;;10.60;3.88;;;;;;;16.41;100.00;100909.59;5262262;28;20070;-74
2023/07/30 02:18:15;;;;;;;8.80;3.13;;;;;;;16.44;100.00;100905.78;5262683;28;20055;-76
2023/07/30 02:20:46;;;;;;;7.90;3.28;;;;;;;16.36;100.00;100892.56;5261634;28;20036;-73
2023/07/30 02:23:17;;;;;;;10.25;4.25;;;;;;;16.44;100.00;100888.09;5263381;28;20485;-77
2023/07/30 02:25:49;;;;;;;8.95;3.30;;;;;;;16.47;100.00;100897.50;5249315;28;20110;-74
2023/07/30 02:28:20;;;;;;;7.45;3.00;;;;;;;16.46;100.00;100894.03;5264141;28;20485;-74
2023/07/30 02:30:51;;;;;;;10.98;3.65;;;;;;;16.49;100.00;100896.34;5258199;28;20021;-75
2023/07/30 02:33:23;;;;;;;8.85;3.75;;;;;;;16.47;100.00;100889.56;5260900;28;20170;-74
2023/07/30 02:35:54;;;;;;;10.73;4.50;;;;;;;16.52;100.00;100893.38;5263009;28;20029;-73
2023/07/30 02:38:25;;;;;;;10.68;3.92;;;;;;;16.54;100.00;100899.31;5262784;28;20037;-74
2023/07/30 02:40:56;;;;;;;11.10;3.10;;;;;;;16.60;100.00;100895.19;5265200;28;20453;-74
2023/07/30 02:43:28;;;;;;;9.07;3.33;;;;;;;16.62;100.00;100900.28;5259569;28;20444;-73
2023/07/30 02:45:59;;;;;;;11.60;3.50;;;;;;;16.66;100.00;100898.97;5263946;28;20342;-74
2023/07/30 02:48:30;;;;;;;10.70;3.30;;;;;;;16.62;100.00;100895.00;5245712;28;20493;-73
2023/07/30 02:51:01;;;;;;;9.30;4.00;;;;;;;16.69;100.00;100902.09;5263568;28;20028;-76
2023/07/30 02:53:33;;;;;;;10.95;3.75;;;;;;;16.68;100.00;100900.47;5268948;28;20638;-75
2023/07/30 02:56:04;;;;;;;10.20;3.67;;;;;;;16.67;100.00;100898.81;5266404;28;20064;-74
2023/07/30 02:58:35;;;;;;;6.93;3.10;;;;;;;16.71;100.00;100899.31;5259574;28;20029;-75
2023/07/30 03:01:07;;;;;;;7.03;3.28;;;;;;;16.68;100.00;100889.06;5257407;28;20458;-73
2023/07/30 03:03:39;;;;;;;11.07;3.93;;;;;;;16.72;100.00;100899.13;5263926;28;20494;-74
2023/07/30 03:06:10;;;;;;;10.52;3.72;;;;;;;16.72;100.00;100893.84;5262680;28;20032;-73
2023/07/30 03:08:41;;;;;;;9.75;3.95;;;;;;;16.73;100.00;100897.31;5265151;28;20044;-75
2023/07/30 03:11:13;;;;;;;10.65;4.13;;;;;;;16.76;100.00;100900.47;5262953;28;20119;-73
2023/07/30 03:13:44;;;;;;;9.25;3.88;;;;;;;16.78;100.00;100898.50;5259046;28;20017;-75
2023/07/30 03:16:16;;;;;;;9.55;3.10;;;;;;;16.80;100.00;100902.78;5260748;28;20490;-74
2023/07/30 03:18:47;;;;;;;5.78;3.42;;;;;;;16.78;100.00;100902.94;5263395;28;20028;-73
2023/07/30 03:21:18;;;;;;;16.30;4.50;;;;;;;16.80;100.00;100908.06;5260441;28;20024;-76
2023/07/30 03:23:49;;;;;;;9.32;3.85;;;;;;;16.78;100.00;100897.63;5265460;28;20024;-75
2023/07/30 03:26:21;;;;;;;8.00;3.58;;;;;;;16.81;100.00;100901.78;5260645;28;20013;-76
2023/07/30 03:28:52;;;;;;;10.65;3.95;;;;;;;16.73;100.00;100898.16;5258688;28;20021;-77
2023/07/30 03:31:23;;;;;;;11.45;3.40;;;;;;;16.82;100.00;100903.41;5258964;28;20107;-74
2023/07/30 03:33:55;;;;;;;10.68;3.65;;;;;;;16.78;100.00;100901.13;5241992;28;20037;-77
2023/07/30 03:36:26;;;;;;;11.30;3.30;;;;;;;16.83;100.00;100903.28;5263170;28;20507;-74
2023/07/30 03:38:57;;;;;;;13.90;3.70;;;;;;;16.84;100.00;100907.56;5266102;28;20075;-74
2023/07/30 03:41:29;;;;;;;10.32;3.63;;;;;;;16.92;100.00;100904.06;5261916;28;20044;-76
2023/07/30 03:44:00;;;;;;;12.05;3.70;;;;;;;16.85;100.00;100908.38;5257003;28;20102;-74
2023/07/30 03:46:31;;;;;;;7.88;3.53;;;;;;;16.88;100.00;100916.81;5268296;28;20029;-74
2023/07/30 03:49:02;;;;;;;11.02;3.28;;;;;;;16.84;100.00;100909.38;5258542;28;20024;-73
2023/07/30 03:51:34;;;;;;;7.13;3.60;;;;;;;16.86;100.00;100917.97;5265527;28;20020;-74
2023/07/30 03:54:05;;;;;;;10.82;3.40;;;;;;;16.87;100.00;100917.00;5262973;28;20062;-74
2023/07/30 03:56:36;;;;;;;10.60;3.20;;;;;;;16.82;100.00;100906.06;5266131;28;20621;-73
2023/07/30 03:59:07;;;;;;;12.52;3.38;;;;;;;16.86;100.00;100924.09;5266048;28;20539;-75
2023/07/30 04:01:39;;;;;;;12.07;3.38;;;;;;;16.92;100.00;100922.59;5270392;28;20055;-73
2023/07/30 04:04:10;;;;;;;12.88;3.72;;;;;;;16.90;100.00;100925.41;5265243;28;20068;-73
2023/07/30 04:06:41;;;;;;;12.45;3.40;;;;;;;16.94;100.00;100923.25;5265470;28;20028;-73
2023/07/30 04:09:13;;;;;;;7.47;3.20;;;;;;;16.92;100.00;100922.59;5264784;28;20020;-78
2023/07/30 04:11:44;;;;;;;12.20;3.83;;;;;;;16.92;100.00;100925.25;5264798;28;20091;-75
2023/07/30 04:14:15;;;;;;;7.88;3.17;;;;;;;16.97;100.00;100926.41;5263220;28;20108;-73
2023/07/30 04:16:47;;;;;;;11.77;4.23;;;;;;;16.97;100.00;100925.53;5267670;28;20033;-73
2023/07/30 04:19:18;;;;;;;13.27;3.80;;;;;;;16.88;100.00;100916.81;5251417;28;20267;-74
2023/07/30 04:21:49;;;;;;;13.60;3.70;;;;;;;17.00;100.00;100927.84;5271647;28;20113;-73
2023/07/30 04:24:20;;;;;;;10.18;4.15;;;;;;;16.97;100.00;100926.41;5271732;28;20051;-75
2023/07/30 04:26:52;;;;;;;11.38;3.60;;;;;;;16.89;100.00;100926.38;5271961;28;20432;-75
2023/07/30 04:29:23;;;;;;;11.38;4.18;;;;;;;16.96;100.00;100931.84;5270424;28;20029;-75
2023/07/30 04:31:54;;;;;;;10.18;4.00;;;;;;;16.96;100.00;100927.38;5253301;28;20037;-74
2023/07/30 04:34:25;;;;;;;16.05;4.93;;;;;;;16.97;100.00;100921.09;5265105;28;20036;-73
2023/07/30 04:36:57;;;;;;;11.57;4.35;;;;;;;16.95;100.00;100925.72;5265993;28;20044;-75
2023/07/30 04:39:31;;;;;;;15.68;4.65;;;;;;;17.00;100.00;100927.84;5268050;28;20135;-75
2023/07/30 04:42:03;;;;;;;10.15;4.78;;;;;;;16.95;100.00;100924.91;5263487;28;20054;-73
2023/07/30 04:44:34;;;;;;;16.17;4.88;;;;;;;16.99;100.00;100932.31;5266888;28;20024;-73
2023/07/30 04:47:07;;;;;;;12.90;4.57;;;;;;;17.06;100.00;100929.84;5245645;28;20025;-74
2023/07/30 04:49:40;;;;;;;12.70;4.50;;;;;;;17.01;100.00;100919.75;5270240;28;20040;-75
2023/07/30 04:52:11;;;;;;;13.30;4.68;;;;;;;17.12;100.00;100925.66;5258308;28;20021;-74
2023/07/30 04:54:42;;;;;;;13.00;5.13;;;;;;;17.18;100.00;100928.47;5260798;28;20470;-74
2023/07/30 04:57:14;;;;;;;15.60;5.05;;;;;;;17.21;100.00;100924.66;5267106;28;20488;-76
2023/07/30 04:59:45;;;;;;;14.65;4.70;;;;;;;17.24;100.00;100934.91;5263885;28;20386;-75
2023/07/30 05:02:16;;;;;;;11.77;4.90;;;;;;;17.27;100.00;100938.03;5259500;28;20426;-73
2023/07/30 05:04:47;;;;;;;14.55;4.85;;;;;;;17.29;100.00;100937.84;5265953;28;20021;-73
2023/07/30 05:07:19;;;;;;;15.98;5.28;;;;;;;17.38;100.00;100943.94;5262096;28;20035;-73
2023/07/30 05:09:50;;;;;;;13.77;4.95;;;;;;;17.37;100.00;100943.13;5259324;28;20124;-73
2023/07/30 05:12:21;;;;;;;13.75;4.85;;;;;;;17.41;100.00;100949.72;5263024;28;20020;-76
2023/07/30 05:14:53;;;;;;;12.73;4.93;;;;;;;17.39;100.00;100948.25;5270216;28;20024;-76
2023/07/30 05:17:24;;;;;;;12.55;5.10;;;;;;;17.36;100.00;100953.91;5258358;28;20039;-76
2023/07/30 05:19:55;;;;;;;14.07;5.32;;;;;;;17.40;100.00;100956.03;5265074;28;20021;-76
2023/07/30 05:22:26;;;;;;;13.73;4.57;;;;;;;17.41;100.00;100952.38;5261831;28;20035;-74
2023/07/30 05:24:58;;;;;;;14.38;4.95;;;;;;;17.45;100.00;100955.50;5247079;28;20032;-74
2023/07/30 05:27:31;;;;;;;13.15;4.53;;;;;;;17.45;100.00;100958.97;5245686;28;20054;-76
2023/07/30 05:30:02;;;;;;;16.20;5.53;;;;;;;17.43;100.00;100960.97;5259292;28;20379;-74
2023/07/30 05:32:33;;;;;;;16.48;5.57;;;;;;;17.46;100.00;100957.13;5263783;28;20021;-73
2023/07/30 05:35:05;;;;;;;13.82;4.95;;;;;;;17.50;100.00;100958.44;5262699;28;20028;-73
2023/07/30 05:37:37;;;;;;;11.50;4.45;;;;;;;17.49;100.00;100951.50;5263327;28;20068;-73
2023/07/30 05:40:08;;;;;;;20.08;5.63;;;;;;;17.54;100.00;100946.53;5260944;28;20557;-74
2023/07/30 05:42:39;;;;;;;14.68;5.53;;;;;;;17.61;100.00;100950.13;5260650;28;20488;-73
2023/07/30 05:45:11;;;;;;;13.00;4.40;;;;;;;17.65;100.00;100948.78;5264159;28;20102;-73
2023/07/30 05:47:43;;;;;;;17.90;5.75;;;;;;;17.62;100.00;100938.53;5261203;28;20032;-73
2023/07/30 05:50:14;;;;;;;17.45;5.65;;;;;;;17.70;100.00;100950.91;5260954;28;20023;-74
2023/07/30 05:52:45;;;;;;;14.75;5.13;;;;;;;17.73;100.00;100947.94;5258645;28;20083;-76
2023/07/30 05:55:16;;;;;;;20.30;5.15;;;;;;;17.73;100.00;100946.09;5260482;28;20115;-74
2023/07/30 05:57:48;;;;;;;15.57;5.72;;;;;;;17.85;100.00;100951.84;5259463;28;20413;-76
2023/07/30 06:00:19;;;;;;;16.85;4.68;;;;;;;17.87;100.00;100956.97;5257128;28;20116;-74
2023/07/30 06:02:50;;;;;;;18.30;5.03;;;;;;;17.90;100.00;100960.09;5260477;28;20105;-73
2023/07/30 06:05:22;;;;;;;15.25;5.38;;;;;;;17.90;100.00;100954.78;5284647;28;20024;-74
2023/07/30 06:07:53;;;;;;;18.40;4.57;;;;;;;17.96;100.00;100958.59;5288506;28;20039;-74
2023/07/30 06:10:24;;;;;;;18.20;4.88;;;;;;;17.95;100.00;100956.91;5278566;28;20025;-73
2023/07/30 06:12:55;;;;;;;13.93;4.57;;;;;;;17.97;100.00;100962.88;5285164;28;20067;-73
2023/07/30 06:15:27;;;;;;;16.47;4.50;;;;;;;18.02;100.00;100968.47;5283547;28;20050;-75
2023/07/30 06:17:58;;;;;;;19.10;5.38;;;;;;;18.03;100.00;100964.81;5280730;28;20332;-73
2023/07/30 06:20:30;;;;;;;15.85;4.55;;;;;;;18.12;100.00;100958.47;5281595;28;20028;-74
2023/07/30 06:23:01;;;;;;;21.60;6.85;;;;;;;18.10;100.00;100957.81;5277827;28;20032;-74
2023/07/30 06:25:32;;;;;;;16.52;5.20;;;;;;;18.17;100.00;100966.69;5280718;28;20326;-75
2023/07/30 06:28:05;;;;;;;13.50;4.93;;;;;;;18.21;100.00;100965.34;5282013;28;20044;-74
2023/07/30 06:30:38;;;;;;;17.45;5.43;;;;;;;18.23;100.00;100966.00;5275146;28;20040;-74
2023/07/30 06:33:10;;;;;;;17.10;5.32;;;;;;;18.27;100.00;100970.97;5277919;28;21201;-74
2023/07/30 06:35:41;;;;;;;20.35;5.68;;;;;;;18.35;100.00;100968.25;5280016;28;20034;-74
2023/07/30 06:38:12;;;;;;;16.73;4.75;;;;;;;18.32;100.00;100963.28;5283907;28;20032;-74
2023/07/30 06:40:44;;;;;;;17.05;4.88;;;;;;;18.32;100.00;100968.59;5280776;28;20028;-75
2023/07/30 06:43:15;;;;;;;21.88;5.78;;;;;;;18.30;100.00;100960.81;5283354;28;20032;-74
2023/07/30 06:45:46;;;;;;;12.93;4.47;;;;;;;18.18;100.00;100928.59;5278867;28;20477;-74
2023/07/30 06:48:18;;;;;;;15.70;5.05;;;;;;;18.41;100.00;100960.41;5281865;28;20028;-74
2023/07/30 06:50:49;;;;;;;17.25;4.88;;;;;;;18.52;100.00;100969.75;5279461;28;20025;-75
2023/07/30 06:53:20;;;;;;;17.58;5.47;;;;;;;18.56;100.00;100972.88;5281600;28;20154;-75
2023/07/30 06:55:51;;;;;;;15.00;5.00;;;;;;;18.58;100.00;100966.38;5280901;28;20065;-75
2023/07/30 06:58:23;;;;;;;15.60;4.85;;;;;;;18.59;100.00;100975.16;5279842;28;20024;-75
2023/07/30 07:00:54;;;;;;;16.08;5.25;;;;;;;18.63;100.00;100974.63;5272127;28;20052;-75
2023/07/30 07:03:25;;;;;;;13.40;4.20;;;;;;;18.65;100.00;100972.63;5263574;28;20497;-75
2023/07/30 07:05:57;;;;;;;18.75;5.00;;;;;;;18.70;100.00;100969.44;5240005;28;20478;-75
2023/07/30 07:08:28;;;;;;;15.30;4.47;;;;;;;18.80;100.00;100978.00;5260825;28;20016;-75
2023/07/30 07:10:59;;;;;;;18.98;4.45;;;;;;;18.84;100.00;100978.47;5257346;28;20481;-75
2023/07/30 07:13:31;;;;;;;13.57;4.32;;;;;;;18.90;100.00;100980.38;5241912;28;20027;-74
2023/07/30 07:16:03;;;;;;;16.70;4.67;;;;;;;18.86;100.00;100982.56;5253678;22;20061;-69
2023/07/30 07:18:34;;;;;;;12.33;3.90;;;;;;;18.99;100.00;100981.13;5254450;28;20482;-69
2023/07/30 07:21:05;;;;;;;13.23;5.03;;;;;;;19.16;100.00;100980.75;5256628;28;20699;-69
2023/07/30 07:23:37;;;;;;;15.30;4.17;;;;;;;19.38;100.00;100984.34;5256839;28;20458;-69
2023/07/30 07:26:08;;;;;;;14.60;3.43;;;;;;;19.51;100.00;100988.16;5261091;28;20029;-69
2023/07/30 07:28:39;;;;;;;13.27;3.67;;;;;;;19.63;100.00;100965.47;5275242;22;20780;-76
2023/07/30 07:31:10;;;;;;;16.27;4.30;;;;;;;19.74;100.00;100977.47;5278871;28;20081;-76
2023/07/30 07:33:44;;;;;;;16.57;3.40;;;;;;;19.83;100.00;100979.81;5284843;28;20024;-75
2023/07/30 07:36:15;;;;;;;19.40;4.57;;;;;;;19.83;100.00;100974.47;5284937;28;20134;-76
2023/07/30 07:38:47;;;;;;;13.18;3.63;;;;;;;20.04;100.00;100988.81;5288098;28;20199;-76
2023/07/30 07:41:18;;;;;;;13.87;3.83;;;;;;;19.93;100.00;100998.13;5284267;28;20059;-76
2023/07/30 07:43:52;;;;;;;12.27;3.70;;;;;;;19.89;100.00;101003.00;5282292;28;20097;-76
2023/07/30 07:46:26;;;;;;;13.77;4.00;;;;;;;19.67;100.00;100999.47;5281960;28;20028;-76
2023/07/30 07:48:57;;;;;;;11.85;3.60;;;;;;;19.62;100.00;101006.31;5288250;28;20118;-75
2023/07/30 07:51:28;;;;;;;14.30;4.50;;;;;;;19.65;100.00;101004.13;5285850;28;20028;-76
2023/07/30 07:53:59;;;;;;;16.63;3.58;;;;;;;19.72;100.00;100998.06;5282810;28;20029;-75
2023/07/30 07:56:31;;;;;;;12.80;3.55;;;;;;;19.88;100.00;100992.53;5272256;28;20040;-75
2023/07/30 07:59:02;;;;;;;11.07;3.55;;;;;;;19.93;100.00;100995.47;5278960;28;20052;-75
2023/07/30 08:01:33;;;;;;;11.93;3.80;;;;;;;20.06;100.00;101000.09;5276911;28;20067;-75
2023/07/30 08:04:05;;;;;;;11.27;3.50;;;;;;;20.13;100.00;101001.00;5279182;28;20028;-75
2023/07/30 08:06:36;;;;;;;17.37;4.17;;;;;;;20.13;100.00;100996.50;5287046;28;20034;-75
2023/07/30 08:09:07;;;;;;;11.95;3.72;;;;;;;20.23;100.00;100995.34;5283666;28;20039;-75
2023/07/30 08:11:39;;;;;;;15.87;3.60;;;;;;;20.34;100.00;101001.00;5279722;28;20029;-76
2023/07/30 08:14:10;;;;;;;18.77;4.18;;;;;;;20.48;100.00;101009.91;5288895;28;20081;-76
2023/07/30 08:16:41;;;;;;;17.57;4.27;;;;;;;20.55;100.00;101010.00;5288880;28;20027;-75
2023/07/30 08:19:12;;;;;;;14.33;3.30;;;;;;;20.54;100.00;101021.69;5285394;28;20020;-76
2023/07/30 08:21:44;;;;;;;14.80;3.80;;;;;;;20.43;100.00;101012.34;5277866;28;20561;-75
2023/07/30 08:24:15;;;;;;;12.77;3.33;;;;;;;20.30;100.00;101022.84;5283968;28;20035;-76
2023/07/30 08:26:46;;;;;;;14.23;3.97;;;;;;;20.37;100.00;101023.72;5284409;28;20028;-77
2023/07/30 08:29:18;;;;;;;13.23;3.77;;;;;;;20.26;100.00;101026.88;5278448;28;20028;-76
2023/07/30 08:31:49;;;;;;;15.43;3.57;;;;;;;20.34;100.00;101022.28;5281071;28;20031;-76
2023/07/30 08:34:22;;;;;;;10.23;3.37;;;;;;;20.24;100.00;101018.28;5284777;28;20039;-75
2023/07/30 08:36:53;;;;;;;11.27;3.83;;;;;;;20.15;100.00;101015.75;5281054;28;20444;-76
2023/07/30 08:39:24;;;;;;;10.20;3.60;;;;;;;20.20;100.00;101012.53;5276830;28;20082;-76
2023/07/30 08:41:56;;;;;;;16.10;3.30;;;;;;;20.22;100.00;101015.81;5282139;28;20028;-75
2023/07/30 08:44:27;;;;;;;11.70;3.30;;;;;;;20.13;100.00;101016.94;5277472;28;20112;-75
2023/07/30 08:46:58;;;;;;;15.77;3.87;;;;;;;20.14;100.00;101018.59;5280645;28;20054;-75
2023/07/30 08:49:32;;;;;;;12.43;3.07;;;;;;;20.07;100.00;101013.19;5283348;28;20032;-76
2023/07/30 08:52:08;;;;;;;12.13;3.35;;;;;;;20.07;100.00;101009.72;5279855;28;20485;-76
2023/07/30 08:54:41;;;;;;;12.85;3.40;;;;;;;19.88;100.00;101013.78;5284025;28;20035;-76
2023/07/30 08:57:12;;;;;;;15.48;3.50;;;;;;;19.80;100.00;101008.59;5277105;28;20027;-76
2023/07/30 08:59:50;;;;;;;13.83;3.20;;;;;;;19.95;100.00;101004.06;5282300;28;20019;-76
2023/07/30 09:02:34;;;;;;;11.90;3.53;;;;;;;20.18;100.00;101010.03;5280389;28;20451;-77
2023/07/30 09:05:06;;;;;;;9.60;3.10;;;;;;;20.11;100.00;101006.47;5275131;28;20360;-76
2023/07/30 09:07:38;;;;;;;10.73;3.33;;;;;;;20.24;100.00;101005.00;5277377;28;20053;-76
2023/07/30 09:10:09;;;;;;;13.57;3.63;;;;;;;20.38;100.00;101004.09;5281034;28;20612;-76
2023/07/30 09:12:41;;;;;;;7.33;2.70;;;;;;;20.62;100.00;101003.72;5278578;28;20477;-75
2023/07/30 09:15:12;;;;;;;14.30;3.27;;;;;;;20.83;100.00;101008.19;5279160;28;20090;-76
2023/07/30 09:17:45;;;;;;;10.77;3.23;;;;;;;21.19;100.00;101006.38;5275191;28;20063;-76
2023/07/30 09:20:17;;;;;;;;;;;;;;;22.04;100.00;101003.28;5277847;28;20617;-75
2023/07/30 09:22:49;;;;;;;12.00;3.88;;;;;;;21.77;100.00;100991.72;5276913;28;19929;-74
2023/07/30 09:25:21;;;;;;;12.40;3.22;;;;;;;21.91;100.00;100999.78;5278044;28;20020;-76
2023/07/30 09:27:52;;;;;;;10.10;2.53;;;;;;;21.89;100.00;101001.81;5276752;28;20578;-76
2023/07/30 09:30:24;;;;;;;11.43;2.93;;;;;;;21.77;100.00;100997.03;5276643;28;20028;-76
2023/07/30 09:32:57;;;;;;;20.58;4.18;;;;;;;21.86;100.00;100997.72;5286113;28;20476;-76
2023/07/30 09:35:33;;;;;;;9.55;2.78;;;;;;;21.95;100.00;100995.69;5278137;28;20063;-77
2023/07/30 09:38:04;;;;;;;8.65;2.42;;;;;;;21.94;100.00;101000.19;5282484;28;20081;-76
2023/07/30 09:40:37;;;;;;;10.73;2.93;;;;;;;21.99;100.00;100981.72;5286384;28;20473;-75
2023/07/30 09:43:09;;;;;;;10.88;3.13;;;;;;;21.93;100.00;101008.38;5285551;28;20032;-75
2023/07/30 09:45:40;;;;;;;10.80;2.40;;;;;;;21.83;100.00;101012.25;5281258;28;20028;-75
2023/07/30 09:48:11;;;;;;;11.10;2.63;;;;;;;21.80;100.00;101006.50;5279857;28;20036;-76
2023/07/30 09:50:43;;;;;;;8.17;2.67;;;;;;;21.75;100.00;101012.44;5281452;28;20035;-76
2023/07/30 09:53:16;;;;;;;10.70;2.43;;;;;;;22.08;100.00;101007.19;5280483;28;20554;-75
2023/07/30 09:55:47;;;;;;;8.32;2.40;;;;;;;22.05;100.00;101009.47;5280638;28;20032;-76
2023/07/30 09:58:19;;;;;;;8.33;2.40;;;;;;;22.02;100.00;101023.19;5277509;28;20072;-75
2023/07/30 10:00:51;;;;;;;7.30;1.90;;;;;;;22.00;100.00;101026.06;5279088;28;20020;-76
2023/07/30 10:03:22;;;;;;;9.45;2.45;;;;;;;22.02;100.00;101018.69;5279831;28;20056;-76
2023/07/30 10:06:02;;;;;;;7.10;2.40;;;;;;;22.10;100.00;101015.81;5280624;28;20127;-76
2023/07/30 10:08:38;;;;;;;11.48;2.40;;;;;;;21.91;100.00;101010.44;5283383;28;20074;-77
2023/07/30 10:11:11;;;;;;;12.38;3.20;;;;;;;21.76;100.00;101019.41;5278162;28;20446;-76
2023/07/30 10:13:42;;;;;;;;;;;;;;;22.64;100.00;101027.41;5283760;28;20129;-76
2023/07/30 10:16:13;;;;;;;6.93;2.00;;;;;;;21.83;100.00;101036.25;5273989;28;20010;-76
2023/07/30 10:18:45;;;;;;;8.37;2.83;;;;;;;21.81;100.00;101040.16;5280087;28;20028;-75
2023/07/30 10:21:23;;;;;;;8.47;2.30;;;;;;;22.22;100.00;101029.44;5281352;28;20024;-76
2023/07/30 10:23:59;;;;;;;7.05;2.03;;;;;;;22.31;100.00;101027.38;5272874;28;20560;-76
2023/07/30 10:26:33;;;;;;;7.40;2.20;;;;;;;22.44;100.00;101034.59;5277977;28;20028;-76
2023/07/30 10:29:19;;;;;;;8.82;2.10;;;;;;;22.69;100.00;101029.47;5273809;28;20080;-76
2023/07/30 10:31:56;;;;;;;6.90;2.20;;;;;;;22.53;100.00;101036.03;5281620;28;20553;-77
2023/07/30 10:34:44;;;;;;;7.55;2.47;;;;;;;22.59;100.00;101048.59;5279737;28;20497;-76
2023/07/30 10:37:18;;;;;;;5.82;1.60;;;;;;;22.31;100.00;101054.06;5277173;28;20035;-76
2023/07/30 10:39:50;;;;;;;5.93;1.80;;;;;;;22.11;100.00;101067.34;5278969;28;20019;-76
2023/07/30 10:42:21;;;;;;;7.47;1.83;;;;;;;22.13;100.00;101064.50;5273148;28;20036;-76
2023/07/30 10:44:52;;;;;;;7.47;2.17;;;;;;;22.22;100.00;101066.78;5280637;28;20054;-76
2023/07/30 10:47:27;;;;;;;7.50;2.30;;;;;;;22.41;100.00;101061.69;5277401;28;20028;-76
2023/07/30 10:50:01;;;;;;;6.70;1.83;;;;;;;22.42;100.00;101066.81;5277042;28;20110;-76
2023/07/30 10:52:35;;;;;;;10.55;2.60;;;;;;;22.32;100.00;101050.41;5280454;28;20048;-76
2023/07/30 10:55:07;;;;;;;7.30;1.92;;;;;;;22.17;100.00;101058.56;5278751;28;20562;-76
2023/07/30 10:57:40;;;;;;;5.73;2.00;;;;;;;22.16;100.00;101054.28;5279005;28;20036;-77
2023/07/30 11:00:11;;;;;;;;;;;;;;;22.97;100.00;101059.50;5277284;28;20439;-76
2023/07/30 11:02:42;;;;;;;8.52;1.80;;;;;;;22.03;100.00;101057.66;5277336;28;20008;-76
2023/07/30 11:05:14;;;;;;;6.70;1.90;;;;;;;21.90;100.00;101068.31;5279122;28;20416;-76
2023/07/30 11:07:50;;;;;;;6.83;1.87;;;;;;;21.76;100.00;101070.09;5280123;28;20419;-76
2023/07/30 11:10:21;;;;;;;6.82;2.20;;;;;;;21.45;100.00;101083.88;5272445;28;20020;-76
2023/07/30 11:12:52;;;;;;;7.40;1.80;;;;;;;21.49;100.00;101085.13;5275213;28;20027;-76
2023/07/30 11:15:24;;;;;;;8.20;2.00;;;;;;;21.36;100.00;101082.34;5280789;28;20032;-76
2023/07/30 11:17:56;;;;;;;7.70;1.97;;;;;;;21.26;100.00;101071.22;5277503;28;20039;-77
2023/07/30 11:20:28;;;;;;;5.03;1.75;;;;;;;21.22;100.00;101084.09;5278792;28;20115;-76
2023/07/30 11:22:59;;;;;;;5.23;1.80;;;;;;;21.22;100.00;101069.97;5278454;28;20148;-76
2023/07/30 11:25:30;;;;;;;7.97;2.20;;;;;;;21.61;100.00;101088.88;5279808;28;20097;-77
2023/07/30 11:28:02;;;;;;;6.47;1.80;;;;;;;21.86;100.00;101078.56;5281074;28;20066;-76
2023/07/30 11:30:33;;;;;;;5.60;1.73;;;;;;;22.37;100.00;101081.81;5275788;28;20111;-76
2023/07/30 11:33:04;;;;;;;5.23;1.77;;;;;;;22.68;100.00;101076.72;5275366;28;20125;-76
2023/07/30 11:35:36;;;;;;;6.10;1.50;;;;;;;22.68;100.00;101086.59;5273469;28;20044;-76